Bainbridge, Georgia
Current Conditions -  °F | °C
As of 7:35 PM on Sunday 21 Dec 2014 (Local Time) from KBGE Reporting Station
Haze Haze  
Wind Chill: 55°   Ceiling: 300
Heat Index: 55°   Visibility: 3mi
Dew Point: 54°   Wind: 8mph
Humidity: 94%   Direction: 60°ENE
Pressure: 30.06"   Gusts: NA
Location:  30.91°N, 84.57°W
Report Text: KBGE 220035Z AUTO 06007KT 3SM BR OVC003 13/12 A3006 RMK AO2
Loading
Personal Weather Stations






























Interactive Weather Map New forecast layout! Learn more

10-Day Weather Forecast

Advertisements
Track Severe Weather on mobile